Terminal Aerodrome Forecast
Issued by NWS

Home | Current Version | Previous Version | Text Only | Print | Product List | Glossary On
Versions: 1 2 3 4 5 6 7 8 9 10 11 12 13 14
000
FTUS46 KSGX 301124
TAFCRQ
TAF
KCRQ 301124Z 3012/0112 VRB04KT P6SM SKC
     FM301900 25008KT P6SM SKC
     FM010100 VRB03KT P6SM FEW004
     FM010900 VRB03KT 2SM BR BKN003=

USA.gov is the U.S. government's official web portal to all federal, state and local government web resources and services.